createdAt,value
2023-02-12T00:01:16.230Z,18.43
2023-02-12T00:03:46.529Z,17.77
2023-02-12T00:06:19.098Z,18.17
2023-02-12T00:08:52.014Z,18.50
2023-02-12T00:11:24.890Z,17.50
2023-02-12T00:14:03.559Z,19.07
2023-02-12T00:16:31.416Z,19.50
2023-02-12T00:18:59.948Z,17.90
2023-02-12T00:21:31.875Z,18.17
2023-02-12T00:23:59.752Z,16.67
2023-02-12T00:26:27.667Z,19.13
2023-02-12T00:28:55.926Z,17.60
2023-02-12T00:31:28.732Z,18.67
2023-02-12T00:33:56.811Z,18.50
2023-02-12T00:36:30.003Z,17.10
2023-02-12T00:39:01.352Z,19.33
2023-02-12T00:41:29.447Z,16.17
2023-02-12T00:44:02.455Z,17.70
2023-02-12T00:46:30.309Z,18.60
2023-02-12T00:49:00.311Z,17.87
2023-02-12T00:51:35.272Z,19.60
2023-02-12T00:54:07.419Z,20.13
2023-02-12T00:56:35.216Z,19.50
2023-02-12T00:59:02.966Z,17.50
2023-02-12T01:01:36.608Z,19.77
2023-02-12T01:04:04.538Z,18.93
2023-02-12T01:06:34.083Z,18.23
2023-02-12T01:09:02.001Z,19.83
2023-02-12T01:11:31.176Z,19.20
2023-02-12T01:14:00.101Z,20.40
2023-02-12T01:16:28.593Z,19.27
2023-02-12T01:18:56.956Z,20.40
2023-02-12T01:21:32.747Z,19.57
2023-02-12T01:24:08.466Z,19.93
2023-02-12T01:26:38.102Z,20.13
2023-02-12T01:29:07.474Z,18.77
2023-02-12T01:31:38.383Z,19.40
2023-02-12T01:34:07.670Z,18.93
2023-02-12T01:36:37.531Z,18.90
2023-02-12T01:39:06.578Z,20.00
2023-02-12T01:41:37.364Z,19.73
2023-02-12T01:44:17.911Z,21.03
2023-02-12T01:46:46.778Z,18.93
2023-02-12T01:49:18.601Z,20.13
2023-02-12T01:51:47.577Z,18.27
2023-02-12T01:54:22.269Z,19.37
2023-02-12T01:56:53.282Z,19.40
2023-02-12T01:59:28.158Z,22.20
2023-02-12T02:01:56.442Z,18.97
2023-02-12T02:04:27.170Z,21.37
2023-02-12T02:06:58.493Z,18.83
2023-02-12T02:09:27.257Z,20.50
2023-02-12T02:12:15.794Z,22.00
2023-02-12T02:14:45.381Z,21.43
2023-02-12T02:17:32.000Z,18.30
2023-02-12T02:20:46.756Z,19.70
2023-02-12T02:23:32.289Z,20.83
2023-02-12T02:26:33.947Z,18.30
2023-02-12T02:29:22.201Z,18.90
2023-02-12T02:31:54.929Z,19.60
2023-02-12T02:34:27.500Z,18.40
2023-02-12T02:37:02.912Z,17.97
2023-02-12T02:39:38.783Z,18.53
2023-02-12T02:42:11.356Z,19.33
2023-02-12T02:44:47.795Z,18.00
2023-02-12T02:47:22.936Z,19.00
2023-02-12T02:50:01.963Z,18.97
2023-02-12T02:52:33.635Z,18.30
2023-02-12T02:55:05.132Z,19.50
2023-02-12T02:57:42.305Z,20.33
2023-02-12T03:00:15.432Z,18.97
2023-02-12T03:02:47.316Z,17.93
2023-02-12T03:05:21.429Z,18.17
2023-02-12T03:07:52.414Z,19.27
2023-02-12T03:10:22.925Z,18.17
2023-02-12T03:12:54.368Z,20.43
2023-02-12T03:15:27.833Z,18.97
2023-02-12T03:18:00.657Z,21.37
2023-02-12T03:20:30.778Z,18.63
2023-02-12T03:23:05.069Z,19.43
2023-02-12T03:25:37.063Z,18.50
2023-02-12T03:28:08.296Z,19.40
2023-02-12T03:30:45.284Z,19.40
2023-02-12T03:33:32.100Z,20.50
2023-02-12T03:36:05.371Z,19.40
2023-02-12T03:38:37.969Z,18.73
2023-02-12T03:41:12.960Z,17.23
2023-02-12T03:43:50.303Z,18.60
2023-02-12T03:46:22.347Z,21.30
2023-02-12T03:49:00.558Z,19.30
2023-02-12T03:51:34.611Z,19.03
2023-02-12T03:54:05.072Z,19.13
2023-02-12T03:56:43.568Z,16.70
2023-02-12T03:59:25.376Z,17.47
2023-02-12T04:01:54.831Z,17.97
2023-02-12T04:04:27.843Z,17.57
2023-02-12T04:06:56.205Z,18.93
2023-02-12T04:09:26.112Z,17.63
2023-02-12T04:12:04.024Z,18.70
2023-02-12T04:14:39.837Z,18.83
2023-02-12T04:17:13.138Z,19.03
2023-02-12T04:19:51.297Z,18.53
2023-02-12T04:22:31.198Z,19.40
2023-02-12T04:25:10.522Z,19.40
2023-02-12T04:27:46.346Z,19.00
2023-02-12T04:30:18.457Z,19.27
2023-02-12T04:32:49.785Z,17.93
2023-02-12T04:35:23.262Z,19.27
2023-02-12T04:37:54.041Z,19.50
2023-02-12T04:40:28.125Z,19.37
2023-02-12T04:43:02.264Z,18.10
2023-02-12T04:45:34.609Z,20.23
2023-02-12T04:48:09.956Z,19.60
2023-02-12T04:50:47.519Z,19.43
2023-02-12T04:53:18.512Z,19.97
2023-02-12T04:55:47.426Z,17.90
2023-02-12T04:58:18.294Z,18.20
2023-02-12T05:00:46.358Z,18.27
2023-02-12T05:03:14.189Z,18.77
2023-02-12T05:05:43.394Z,19.20
2023-02-12T05:08:15.940Z,20.97
2023-02-12T05:10:43.760Z,18.77
2023-02-12T05:13:14.339Z,20.37
2023-02-12T05:15:42.320Z,18.20
2023-02-12T05:18:11.428Z,19.13
2023-02-12T05:20:39.224Z,20.53
2023-02-12T05:23:08.434Z,20.60
2023-02-12T05:25:39.092Z,18.10
2023-02-12T05:28:07.267Z,19.13
2023-02-12T05:30:37.987Z,18.43
2023-02-12T05:33:05.874Z,21.80
2023-02-12T05:35:35.815Z,19.70
2023-02-12T05:38:06.704Z,20.60
2023-02-12T05:40:40.292Z,20.67
2023-02-12T05:43:08.140Z,19.80
2023-02-12T05:45:38.377Z,19.90
2023-02-12T05:48:06.301Z,23.10
2023-02-12T05:50:34.233Z,21.10
2023-02-12T05:53:09.983Z,21.80
2023-02-12T05:55:42.122Z,21.47
2023-02-12T05:58:10.359Z,20.43
2023-02-12T06:00:40.580Z,23.50
2023-02-12T06:03:08.354Z,21.70
2023-02-12T06:05:38.740Z,21.00
2023-02-12T06:08:06.630Z,21.20
2023-02-12T06:10:34.402Z,20.33
2023-02-12T06:13:03.566Z,21.80
2023-02-12T06:15:31.638Z,21.47
2023-02-12T06:18:02.248Z,22.60
2023-02-12T06:20:32.245Z,21.27
2023-02-12T06:23:00.032Z,22.27
2023-02-12T06:25:28.094Z,20.57
2023-02-12T06:27:58.543Z,21.87
2023-02-12T06:30:38.814Z,23.47
2023-02-12T06:33:06.552Z,22.70
2023-02-12T06:35:38.607Z,21.47
2023-02-12T06:38:16.637Z,21.97
2023-02-12T06:40:44.515Z,21.03
2023-02-12T06:43:12.382Z,20.13
2023-02-12T06:45:41.593Z,24.47
2023-02-12T06:48:09.408Z,21.57
2023-02-12T06:50:39.904Z,23.90
2023-02-12T06:53:10.766Z,24.20
2023-02-12T06:55:40.932Z,23.00
2023-02-12T06:58:17.818Z,23.27
2023-02-12T07:00:47.372Z,24.10
2023-02-12T07:03:15.263Z,23.73
2023-02-12T07:05:44.957Z,23.23
2023-02-12T07:08:15.309Z,24.17
2023-02-12T07:10:49.479Z,22.70
2023-02-12T07:13:17.400Z,24.47
2023-02-12T07:15:46.650Z,23.33
2023-02-12T07:18:14.548Z,24.60
2023-02-12T07:20:47.609Z,23.20
2023-02-12T07:23:16.427Z,24.30
2023-02-12T07:25:46.836Z,23.57
2023-02-12T07:28:20.068Z,26.63
2023-02-12T07:30:50.443Z,23.40
2023-02-12T07:33:20.763Z,23.30
2023-02-12T07:35:50.717Z,25.80
2023-02-12T07:38:21.081Z,26.70
2023-02-12T07:40:51.067Z,25.03
2023-02-12T07:43:30.933Z,27.30
2023-02-12T07:46:10.592Z,24.83
2023-02-12T07:48:39.663Z,25.80
2023-02-12T07:51:09.163Z,24.90
2023-02-12T07:53:37.832Z,26.10
2023-02-12T07:56:07.267Z,27.83
2023-02-12T07:58:37.554Z,24.43
2023-02-12T08:01:18.670Z,26.67
2023-02-12T08:03:50.882Z,25.90
2023-02-12T08:06:20.381Z,26.80
2023-02-12T08:08:48.666Z,25.70
2023-02-12T08:11:16.676Z,25.77
2023-02-12T08:13:47.688Z,24.50
2023-02-12T08:16:18.479Z,27.63
2023-02-12T08:18:49.731Z,23.80
2023-02-12T08:21:19.609Z,22.33
2023-02-12T08:23:49.941Z,26.50
2023-02-12T08:26:21.845Z,26.33
2023-02-12T08:28:52.110Z,25.90
2023-02-12T08:31:23.454Z,23.90
2023-02-12T08:33:53.002Z,24.60
2023-02-12T08:36:23.221Z,24.83
2023-02-12T08:38:54.074Z,27.10
2023-02-12T08:41:23.396Z,26.27
2023-02-12T08:44:23.003Z,23.47
2023-02-12T08:46:46.774Z,22.77
2023-02-12T08:49:17.629Z,26.10
2023-02-12T08:51:50.082Z,25.40
2023-02-12T08:54:21.238Z,24.77
2023-02-12T08:56:49.089Z,25.20
2023-02-12T08:59:17.701Z,21.93
2023-02-12T09:01:48.231Z,22.27
2023-02-12T09:04:24.177Z,24.53
2023-02-12T09:06:53.239Z,23.40
2023-02-12T09:09:24.297Z,22.93
2023-02-12T09:11:52.839Z,21.47
2023-02-12T09:14:24.309Z,25.17
2023-02-12T09:16:54.670Z,24.77
2023-02-12T09:19:22.764Z,22.87
2023-02-12T09:21:55.516Z,24.27
2023-02-12T09:24:24.200Z,25.60
2023-02-12T09:27:16.963Z,23.83
2023-02-12T09:29:47.971Z,23.40
2023-02-12T09:32:17.373Z,22.90
2023-02-12T09:34:47.878Z,22.07
2023-02-12T09:37:16.706Z,25.70
2023-02-12T09:39:45.018Z,24.43
2023-02-12T09:42:36.535Z,23.80
2023-02-12T09:45:08.747Z,23.30
2023-02-12T09:47:47.145Z,25.13
2023-02-12T09:50:27.679Z,25.97
2023-02-12T09:52:57.923Z,24.07
2023-02-12T09:55:28.796Z,23.70
2023-02-12T09:57:56.808Z,22.27
2023-02-12T10:00:31.785Z,22.20
2023-02-12T10:03:08.796Z,21.80
2023-02-12T10:05:42.608Z,19.10
2023-02-12T10:08:33.418Z,16.27
2023-02-12T10:11:18.963Z,17.57
2023-02-12T10:13:54.673Z,15.73
2023-02-12T10:16:34.683Z,12.97
2023-02-12T10:19:21.865Z,12.80
2023-02-12T10:22:00.446Z,12.20
2023-02-12T10:24:43.995Z,13.07
2023-02-12T10:27:18.124Z,11.50
2023-02-12T10:29:47.973Z,8.80
2023-02-12T10:32:26.189Z,11.20
2023-02-12T10:34:57.450Z,7.87
2023-02-12T10:37:30.306Z,8.60
2023-02-12T10:40:05.642Z,8.53
2023-02-12T10:42:42.433Z,8.23
2023-02-12T10:45:21.445Z,9.50
2023-02-12T10:47:55.055Z,10.37
2023-02-12T10:50:45.004Z,9.47
2023-02-12T10:53:22.499Z,8.87
2023-02-12T10:55:50.510Z,8.80
2023-02-12T10:58:21.804Z,9.30
2023-02-12T11:01:00.342Z,9.47
2023-02-12T11:03:30.668Z,9.20
2023-02-12T11:06:14.414Z,10.97
2023-02-12T11:08:42.949Z,9.80
2023-02-12T11:11:18.475Z,9.63
2023-02-12T11:13:49.010Z,10.10
2023-02-12T11:16:28.140Z,9.73
2023-02-12T11:19:00.030Z,11.27
2023-02-12T11:21:32.555Z,10.87
2023-02-12T11:24:22.495Z,14.20
2023-02-12T11:26:50.921Z,11.30
2023-02-12T11:29:21.086Z,12.30
2023-02-12T11:32:02.547Z,11.83
2023-02-12T11:34:31.950Z,14.03
2023-02-12T11:37:14.240Z,11.90
2023-02-12T11:39:42.212Z,13.20
2023-02-12T11:42:17.555Z,12.83
2023-02-12T11:44:56.517Z,11.63
2023-02-12T11:47:26.904Z,12.07
2023-02-12T11:50:00.483Z,11.67
2023-02-12T11:52:32.754Z,11.40
2023-02-12T11:55:03.261Z,13.20
2023-02-12T11:57:49.352Z,14.93
2023-02-12T12:00:19.122Z,13.90
2023-02-12T12:02:50.809Z,13.27
2023-02-12T12:05:21.202Z,15.77
2023-02-12T12:07:54.671Z,14.37
2023-02-12T12:10:31.370Z,12.13
2023-02-12T12:13:08.519Z,10.07
2023-02-12T12:15:57.876Z,9.67
2023-02-12T12:18:48.036Z,9.00
2023-02-12T12:21:21.990Z,9.20
2023-02-12T12:23:54.325Z,9.03
2023-02-12T12:26:25.344Z,7.93
2023-02-12T12:28:58.718Z,9.50
2023-02-12T12:31:30.376Z,8.27
2023-02-12T12:34:03.494Z,8.03
2023-02-12T12:36:51.171Z,7.40
2023-02-12T12:39:30.857Z,7.20
2023-02-12T12:42:30.957Z,6.97
2023-02-12T12:45:08.747Z,8.80
2023-02-12T12:47:45.311Z,7.50
2023-02-12T12:50:33.037Z,7.77
2023-02-12T12:53:10.768Z,7.70
2023-02-12T12:56:17.084Z,7.30
2023-02-12T12:58:55.581Z,7.20
2023-02-12T13:01:42.173Z,7.37
2023-02-12T13:04:31.452Z,8.30
2023-02-12T13:07:13.612Z,6.87
2023-02-12T13:10:02.540Z,7.37
2023-02-12T13:13:01.983Z,8.00
2023-02-12T13:15:35.514Z,7.63
2023-02-12T13:18:14.795Z,7.67
2023-02-12T13:20:48.754Z,7.57
2023-02-12T13:23:24.547Z,7.27
2023-02-12T13:26:06.481Z,7.40
2023-02-12T13:28:40.971Z,6.60
2023-02-12T13:31:32.098Z,8.13
2023-02-12T13:34:05.324Z,7.20
2023-02-12T13:36:38.140Z,7.33
2023-02-12T13:39:09.028Z,7.13
2023-02-12T13:41:37.391Z,7.37
2023-02-12T13:44:14.917Z,7.60
2023-02-12T13:46:55.704Z,6.50
2023-02-12T13:49:30.597Z,6.30
2023-02-12T13:52:04.821Z,6.73
2023-02-12T13:54:48.683Z,7.30
2023-02-12T13:57:20.578Z,6.73
2023-02-12T13:59:55.831Z,7.80
2023-02-12T14:02:43.996Z,6.57
2023-02-12T14:05:24.495Z,6.33
2023-02-12T14:07:53.847Z,6.07
2023-02-12T14:10:27.878Z,7.00
2023-02-12T14:12:58.884Z,6.90
2023-02-12T14:15:34.812Z,6.20
2023-02-12T14:18:22.163Z,6.57
2023-02-12T14:21:09.708Z,5.27
2023-02-12T14:23:37.659Z,6.30
2023-02-12T14:26:09.120Z,5.20
2023-02-12T14:28:49.156Z,4.93
2023-02-12T14:31:39.633Z,5.90
2023-02-12T14:34:48.222Z,6.27
2023-02-12T14:37:38.187Z,5.83
2023-02-12T14:40:31.761Z,5.40
2023-02-12T14:43:15.880Z,6.27
2023-02-12T14:45:43.741Z,4.97
2023-02-12T14:48:45.124Z,5.03
2023-02-12T14:51:17.640Z,5.27
2023-02-12T14:53:47.870Z,5.37
2023-02-12T14:56:22.766Z,5.93
2023-02-12T14:58:51.334Z,6.30
2023-02-12T15:01:35.168Z,6.10
2023-02-12T15:04:13.326Z,5.57
2023-02-12T15:06:44.911Z,6.20
2023-02-12T15:09:23.263Z,5.77
2023-02-12T15:11:54.270Z,5.60
2023-02-12T15:14:25.454Z,5.40
2023-02-12T15:16:59.875Z,4.97
2023-02-12T15:19:42.136Z,4.57
2023-02-12T15:22:24.655Z,4.80
2023-02-12T15:24:52.823Z,4.27
2023-02-12T15:27:21.808Z,4.50
2023-02-12T15:29:52.514Z,3.83
2023-02-12T15:32:27.139Z,3.90
2023-02-12T15:34:59.121Z,4.30
2023-02-12T15:40:18.101Z,4.03
2023-02-12T15:42:54.369Z,3.77
2023-02-12T15:45:26.918Z,3.70
2023-02-12T15:48:03.756Z,3.50
2023-02-12T15:50:34.689Z,3.50
2023-02-12T15:53:04.600Z,3.77
2023-02-12T15:55:40.104Z,3.77
2023-02-12T15:58:25.992Z,4.33
2023-02-12T16:00:57.511Z,2.90
2023-02-12T16:03:27.302Z,3.10
2023-02-12T16:06:01.802Z,3.50
2023-02-12T16:08:30.674Z,3.80
2023-02-12T16:11:13.719Z,3.37
2023-02-12T16:13:44.985Z,3.50
2023-02-12T16:16:26.068Z,3.47
2023-02-12T16:19:20.459Z,3.70
2023-02-12T16:21:52.232Z,3.47
2023-02-12T16:24:27.948Z,4.07
2023-02-12T16:26:56.366Z,3.67
2023-02-12T16:29:27.146Z,3.20
2023-02-12T16:31:57.994Z,3.57
2023-02-12T16:34:37.514Z,3.73
2023-02-12T16:37:43.588Z,2.90
2023-02-12T16:40:26.197Z,3.43
2023-02-12T16:43:03.282Z,4.13
2023-02-12T16:45:38.626Z,3.60
2023-02-12T16:48:25.555Z,4.20
2023-02-12T16:50:58.996Z,4.13
2023-02-12T16:53:43.129Z,5.70
2023-02-12T16:59:03.991Z,6.00
2023-02-12T17:01:34.181Z,6.57
2023-02-12T17:04:08.705Z,5.23
2023-02-12T17:06:36.619Z,5.40
2023-02-12T17:09:07.988Z,4.00
2023-02-12T17:11:35.861Z,4.40
2023-02-12T17:14:06.384Z,3.97
2023-02-12T17:16:36.103Z,3.43
2023-02-12T17:19:06.945Z,3.40
2023-02-12T17:21:38.317Z,3.40
2023-02-12T17:24:10.178Z,3.30
2023-02-12T17:26:40.674Z,3.97
2023-02-12T17:29:08.636Z,3.63
2023-02-12T17:31:37.604Z,3.97
2023-02-12T17:34:07.700Z,4.67
2023-02-12T17:36:41.549Z,3.80
2023-02-12T17:39:15.555Z,4.23
2023-02-12T17:41:45.153Z,4.20
2023-02-12T17:44:18.991Z,4.60
2023-02-12T17:46:46.870Z,6.47
2023-02-12T17:49:19.731Z,5.70
2023-02-12T17:51:48.330Z,5.00
2023-02-12T17:54:21.065Z,4.70
2023-02-12T17:56:50.493Z,4.90
2023-02-12T17:59:18.303Z,6.47
2023-02-12T18:01:55.114Z,7.47
2023-02-12T18:04:22.978Z,7.00
2023-02-12T18:06:52.315Z,7.13
2023-02-12T18:09:22.636Z,7.40
2023-02-12T18:11:53.427Z,6.37
2023-02-12T18:14:23.747Z,6.20
2023-02-12T18:16:58.243Z,5.93
2023-02-12T18:19:26.708Z,5.80
2023-02-12T18:21:56.739Z,5.10
2023-02-12T18:24:31.740Z,4.87
2023-02-12T18:27:02.220Z,5.90
2023-02-12T18:29:33.143Z,4.40
2023-02-12T18:32:03.584Z,4.90
2023-02-12T18:34:33.337Z,6.20
2023-02-12T18:37:01.445Z,5.73
2023-02-12T18:39:33.850Z,6.23
2023-02-12T18:42:02.416Z,5.70
2023-02-12T18:44:37.261Z,6.27
2023-02-12T18:47:12.862Z,6.47
2023-02-12T18:49:40.677Z,5.30
2023-02-12T18:52:08.696Z,5.93
2023-02-12T18:54:38.889Z,7.77
2023-02-12T18:57:06.664Z,8.03
2023-02-12T18:59:38.394Z,7.47
2023-02-12T19:02:15.704Z,5.80
2023-02-12T19:04:46.450Z,7.83
2023-02-12T19:07:16.988Z,8.93
2023-02-12T19:09:50.051Z,10.77
2023-02-12T19:12:20.570Z,10.53
2023-02-12T19:14:48.418Z,7.73
2023-02-12T19:17:16.245Z,9.77
2023-02-12T19:19:43.999Z,9.03
2023-02-12T19:22:14.493Z,7.80
2023-02-12T19:24:46.921Z,8.50
2023-02-12T19:27:16.491Z,7.67
2023-02-12T19:29:47.307Z,6.80
2023-02-12T19:32:17.370Z,8.13
2023-02-12T19:34:47.397Z,9.47
2023-02-12T19:37:18.023Z,8.60
2023-02-12T19:39:46.209Z,8.07
2023-02-12T19:42:17.599Z,9.60
2023-02-12T19:44:47.518Z,8.53
2023-02-12T19:47:18.227Z,7.87
2023-02-12T19:49:50.599Z,6.83
2023-02-12T19:52:18.493Z,7.53
2023-02-12T19:54:47.269Z,7.30
2023-02-12T19:57:21.222Z,7.87
2023-02-12T19:59:53.390Z,7.50
2023-02-12T20:02:21.266Z,8.33
2023-02-12T20:04:50.767Z,7.30
2023-02-12T20:07:18.590Z,7.90
2023-02-12T20:09:46.441Z,7.20
2023-02-12T20:12:14.311Z,7.20
2023-02-12T20:14:44.726Z,6.60
2023-02-12T20:17:18.662Z,7.70
2023-02-12T20:19:51.225Z,6.10
2023-02-12T20:22:19.096Z,6.43
2023-02-12T20:24:47.049Z,6.60
2023-02-12T20:27:14.909Z,6.80
2023-02-12T20:29:44.808Z,5.63
2023-02-12T20:32:14.813Z,7.20
2023-02-12T20:34:51.497Z,7.00
2023-02-12T20:37:21.971Z,8.13
2023-02-12T20:39:49.746Z,7.20
2023-02-12T20:42:23.368Z,8.60
2023-02-12T20:45:01.855Z,7.70
2023-02-12T20:47:32.089Z,9.07
2023-02-12T20:50:02.695Z,8.67
2023-02-12T20:52:32.082Z,9.90
2023-02-12T20:55:01.157Z,10.43
2023-02-12T20:57:31.430Z,8.90
2023-02-12T20:59:59.266Z,10.70
2023-02-12T21:02:27.170Z,9.43
2023-02-12T21:04:56.201Z,8.17
2023-02-12T21:07:25.447Z,7.27
2023-02-12T21:09:54.364Z,9.03
2023-02-12T21:12:23.310Z,8.43
2023-02-12T21:14:51.081Z,9.67
2023-02-12T21:17:24.705Z,7.97
2023-02-12T21:19:54.552Z,8.83
2023-02-12T21:22:22.432Z,8.77
2023-02-12T21:25:01.760Z,9.67
2023-02-12T21:27:32.445Z,7.20
2023-02-12T21:30:00.296Z,8.17
2023-02-12T21:32:28.454Z,6.87
2023-02-12T21:34:56.453Z,7.00
2023-02-12T21:37:24.289Z,7.70
2023-02-12T21:39:53.516Z,6.33
2023-02-12T21:42:21.389Z,6.80
2023-02-12T21:44:49.268Z,6.37
2023-02-12T21:47:19.157Z,7.43
2023-02-12T21:49:46.952Z,6.17
2023-02-12T21:52:14.818Z,6.80
2023-02-12T21:54:42.669Z,8.50
2023-02-12T21:57:19.661Z,7.43
2023-02-12T21:59:50.209Z,6.23
2023-02-12T22:02:24.192Z,6.93
2023-02-12T22:04:58.210Z,6.13
2023-02-12T22:07:26.697Z,6.23
2023-02-12T22:10:00.982Z,6.40
2023-02-12T22:12:32.488Z,6.27
2023-02-12T22:15:00.372Z,6.77
2023-02-12T22:17:33.371Z,6.93
2023-02-12T22:20:01.527Z,6.80
2023-02-12T22:22:31.420Z,6.97
2023-02-12T22:24:59.329Z,6.67
2023-02-12T22:27:27.348Z,7.10
2023-02-12T22:29:56.596Z,6.90
2023-02-12T22:32:30.752Z,7.30
2023-02-12T22:35:00.769Z,9.27
2023-02-12T22:37:35.019Z,6.73
2023-02-12T22:40:02.811Z,7.67
2023-02-12T22:42:37.458Z,7.77
2023-02-12T22:45:07.930Z,7.90
2023-02-12T22:47:38.918Z,8.47
2023-02-12T22:50:10.878Z,7.30
2023-02-12T22:52:38.970Z,7.67
2023-02-12T22:55:12.299Z,8.37
2023-02-12T22:57:43.998Z,8.50
2023-02-12T23:00:28.558Z,8.73
2023-02-12T23:03:00.042Z,9.40
2023-02-12T23:05:30.381Z,8.17
2023-02-12T23:08:19.051Z,7.80
2023-02-12T23:10:47.404Z,7.60
2023-02-12T23:13:29.052Z,7.03
2023-02-12T23:15:59.786Z,8.10
2023-02-12T23:18:30.909Z,6.57
2023-02-12T23:21:01.989Z,8.13
2023-02-12T23:23:29.883Z,7.90
2023-02-12T23:25:57.774Z,8.37
2023-02-12T23:28:25.583Z,9.20
2023-02-12T23:30:53.687Z,8.40
2023-02-12T23:33:22.976Z,7.30
2023-02-12T23:35:50.918Z,9.10
2023-02-12T23:38:23.449Z,7.93
2023-02-12T23:40:52.165Z,8.30
2023-02-12T23:43:23.092Z,8.47
2023-02-12T23:45:53.698Z,6.80
2023-02-12T23:48:23.480Z,7.83
2023-02-12T23:50:56.950Z,8.80
2023-02-12T23:53:27.781Z,8.20
2023-02-12T23:55:58.276Z,9.00
2023-02-12T23:58:26.490Z,10.00
